sensor_id;sensor_type;location;lat;lon;timestamp;pressure;altitude;pressure_sealevel;temperature;humidity
75051;BME280;63628;47.656;11.310;2022-12-11T01:08:39;93996.09;;;2.06;82.71
75051;BME280;63628;47.656;11.310;2022-12-11T01:11:08;94000.72;;;2.04;82.98
75051;BME280;63628;47.656;11.310;2022-12-11T01:13:36;94000.50;;;2.05;82.86
75051;BME280;63628;47.656;11.310;2022-12-11T02:35:48;93996.50;;;2.03;82.51
75051;BME280;63628;47.656;11.310;2022-12-11T04:24:07;94007.69;;;1.90;82.39
75051;BME280;63628;47.656;11.310;2022-12-11T04:26:41;94007.91;;;1.88;82.45
75051;BME280;63628;47.656;11.310;2022-12-11T04:29:07;94009.47;;;1.76;81.29
75051;BME280;63628;47.656;11.310;2022-12-11T04:31:34;94009.91;;;1.86;82.59
75051;BME280;63628;47.656;11.310;2022-12-11T04:34:01;94015.72;;;1.88;82.43
75051;BME280;63628;47.656;11.310;2022-12-11T04:36:27;94019.94;;;1.89;82.36
75051;BME280;63628;47.656;11.310;2022-12-11T04:38:54;94014.72;;;1.89;82.68
75051;BME280;63628;47.656;11.310;2022-12-11T04:41:23;94015.91;;;1.87;82.40
75051;BME280;63628;47.656;11.310;2022-12-11T04:43:49;94017.72;;;1.86;82.56
75051;BME280;63628;47.656;11.310;2022-12-11T04:46:18;94019.94;;;1.89;82.47
75051;BME280;63628;47.656;11.310;2022-12-11T04:48:45;94012.31;;;1.88;82.37
75051;BME280;63628;47.656;11.310;2022-12-11T04:51:18;94006.06;;;1.82;82.32
75051;BME280;63628;47.656;11.310;2022-12-11T04:53:45;94013.47;;;1.72;81.96
75051;BME280;63628;47.656;11.310;2022-12-11T04:56:14;93993.22;;;1.74;82.38
75051;BME280;63628;47.656;11.310;2022-12-11T04:58:43;94019.13;;;1.82;82.12
75051;BME280;63628;47.656;11.310;2022-12-11T05:01:12;94011.28;;;1.82;82.69
75051;BME280;63628;47.656;11.310;2022-12-11T05:03:39;94013.72;;;1.84;82.37
75051;BME280;63628;47.656;11.310;2022-12-11T08:40:16;94027.09;;;1.61;82.35
75051;BME280;63628;47.656;11.310;2022-12-11T08:42:43;94024.28;;;1.63;82.13
75051;BME280;63628;47.656;11.310;2022-12-11T10:23:39;93982.41;;;1.84;80.68
75051;BME280;63628;47.656;11.310;2022-12-11T10:26:11;93976.19;;;1.91;80.55
75051;BME280;63628;47.656;11.310;2022-12-11T10:28:41;93968.50;;;3.47;72.86
75051;BME280;63628;47.656;11.310;2022-12-11T10:31:13;93971.59;;;3.24;69.24
75051;BME280;63628;47.656;11.310;2022-12-11T10:33:48;93966.56;;;2.38;73.83
75051;BME280;63628;47.656;11.310;2022-12-11T10:36:21;93959.94;;;1.76;72.87
75051;BME280;63628;47.656;11.310;2022-12-11T10:38:50;93956.88;;;1.46;80.72
75051;BME280;63628;47.656;11.310;2022-12-11T10:41:19;93951.50;;;1.61;81.10
75051;BME280;63628;47.656;11.310;2022-12-11T10:43:51;93940.84;;;1.56;80.60
75051;BME280;63628;47.656;11.310;2022-12-11T10:46:20;93949.88;;;1.47;80.47
75051;BME280;63628;47.656;11.310;2022-12-11T10:48:49;93947.44;;;1.32;79.44
75051;BME280;63628;47.656;11.310;2022-12-11T10:51:16;93950.06;;;1.52;73.32
75051;BME280;63628;47.656;11.310;2022-12-11T10:53:47;93943.88;;;1.59;81.08
75051;BME280;63628;47.656;11.310;2022-12-11T10:56:24;93941.25;;;1.59;81.51
75051;BME280;63628;47.656;11.310;2022-12-11T10:58:51;93936.84;;;1.60;81.46
75051;BME280;63628;47.656;11.310;2022-12-11T11:01:20;93937.44;;;1.62;81.85
75051;BME280;63628;47.656;11.310;2022-12-11T11:03:54;93930.63;;;1.61;81.81
75051;BME280;63628;47.656;11.310;2022-12-11T11:06:23;93932.44;;;1.61;81.55
75051;BME280;63628;47.656;11.310;2022-12-11T11:08:52;93935.84;;;1.61;81.98
75051;BME280;63628;47.656;11.310;2022-12-11T11:11:24;93934.03;;;1.62;81.85
75051;BME280;63628;47.656;11.310;2022-12-11T11:13:51;93929.03;;;1.60;81.80
75051;BME280;63628;47.656;11.310;2022-12-11T11:16:19;93934.03;;;1.62;81.82
75051;BME280;63628;47.656;11.310;2022-12-11T11:18:52;93926.22;;;1.62;81.81
75051;BME280;63628;47.656;11.310;2022-12-11T11:21:21;93921.81;;;1.62;81.86
75051;BME280;63628;47.656;11.310;2022-12-11T11:23:48;93918.81;;;1.65;81.52
75051;BME280;63628;47.656;11.310;2022-12-11T14:32:01;93886.91;;;1.63;82.04
75051;BME280;63628;47.656;11.310;2022-12-11T14:34:32;93882.50;;;1.64;81.75
75051;BME280;63628;47.656;11.310;2022-12-11T14:37:02;93893.13;;;1.62;81.89
75051;BME280;63628;47.656;11.310;2022-12-11T14:39:33;93887.72;;;1.64;82.03
75051;BME280;63628;47.656;11.310;2022-12-11T14:42:03;93896.34;;;1.64;81.96
75051;BME280;63628;47.656;11.310;2022-12-11T14:44:35;93894.72;;;1.63;81.72
75051;BME280;63628;47.656;11.310;2022-12-11T14:47:11;93894.72;;;1.63;81.71
75051;BME280;63628;47.656;11.310;2022-12-11T14:49:42;93902.56;;;1.63;81.75
75051;BME280;63628;47.656;11.310;2022-12-11T14:52:14;93906.97;;;1.63;81.79
75051;BME280;63628;47.656;11.310;2022-12-11T14:54:45;93901.75;;;1.63;81.48
75051;BME280;63628;47.656;11.310;2022-12-11T14:57:17;93907.78;;;1.63;81.74
75051;BME280;63628;47.656;11.310;2022-12-11T14:59:47;93908.56;;;1.64;81.69
75051;BME280;63628;47.656;11.310;2022-12-11T20:31:48;93972.66;;;0.49;75.85
75051;BME280;63628;47.656;11.310;2022-12-11T20:34:15;93977.91;;;0.90;80.84
75051;BME280;63628;47.656;11.310;2022-12-11T20:36:42;93978.53;;;0.92;81.10
75051;BME280;63628;47.656;11.310;2022-12-11T20:39:09;93972.31;;;0.93;81.07
75051;BME280;63628;47.656;11.310;2022-12-11T20:41:36;93976.72;;;0.93;81.12
75051;BME280;63628;47.656;11.310;2022-12-11T20:44:02;93977.31;;;-0.45;71.56
75051;BME280;63628;47.656;11.310;2022-12-11T20:46:29;93968.50;;;0.55;82.33
75051;BME280;63628;47.656;11.310;2022-12-11T20:48:57;93974.66;;;0.82;81.27
75051;BME280;63628;47.656;11.310;2022-12-11T20:51:24;93969.69;;;0.87;80.85
75051;BME280;63628;47.656;11.310;2022-12-11T20:53:53;93963.47;;;0.88;80.96
75051;BME280;63628;47.656;11.310;2022-12-11T20:56:26;93961.47;;;0.90;80.76
75051;BME280;63628;47.656;11.310;2022-12-11T20:58:53;93970.50;;;0.87;80.79
75051;BME280;63628;47.656;11.310;2022-12-11T21:01:22;93964.47;;;0.87;80.67
75051;BME280;63628;47.656;11.310;2022-12-11T21:03:49;93968.06;;;0.86;80.95
75051;BME280;63628;47.656;11.310;2022-12-11T21:06:21;93964.06;;;0.83;80.66
75051;BME280;63628;47.656;11.310;2022-12-11T21:08:48;93967.28;;;0.85;80.69
75051;BME280;63628;47.656;11.310;2022-12-11T21:11:14;93967.88;;;0.87;80.43
75051;BME280;63628;47.656;11.310;2022-12-11T21:13:41;93970.88;;;0.84;80.71
75051;BME280;63628;47.656;11.310;2022-12-11T21:16:08;93972.88;;;0.82;80.68
75051;BME280;63628;47.656;11.310;2022-12-11T21:18:35;93966.06;;;0.81;80.92
75051;BME280;63628;47.656;11.310;2022-12-11T21:21:02;93971.25;;;0.81;80.67
75051;BME280;63628;47.656;11.310;2022-12-11T21:23:30;93970.25;;;0.82;80.74
75051;BME280;63628;47.656;11.310;2022-12-11T21:25:57;93978.28;;;0.81;80.77
75051;BME280;63628;47.656;11.310;2022-12-11T21:28:24;93957.59;;;0.73;80.64
75051;BME280;63628;47.656;11.310;2022-12-11T21:30:59;93971.66;;;0.78;80.90
75051;BME280;63628;47.656;11.310;2022-12-11T21:33:25;93970.84;;;0.78;80.73
75051;BME280;63628;47.656;11.310;2022-12-11T21:35:53;93975.44;;;0.76;81.04
75051;BME280;63628;47.656;11.310;2022-12-11T21:38:21;93975.25;;;0.77;80.68
75051;BME280;63628;47.656;11.310;2022-12-11T21:40:49;93975.44;;;0.76;80.61
75051;BME280;63628;47.656;11.310;2022-12-11T21:43:16;93975.63;;;0.74;80.58
75051;BME280;63628;47.656;11.310;2022-12-11T21:45:42;93979.03;;;0.75;80.55
75051;BME280;63628;47.656;11.310;2022-12-11T21:48:27;93960.78;;;0.68;80.69
75051;BME280;63628;47.656;11.310;2022-12-11T21:50:54;93975.81;;;0.73;80.28
75051;BME280;63628;47.656;11.310;2022-12-11T21:53:21;93967.19;;;0.66;80.59
75051;BME280;63628;47.656;11.310;2022-12-11T21:55:49;93987.22;;;0.72;80.65
75051;BME280;63628;47.656;11.310;2022-12-11T21:58:16;93982.84;;;0.72;80.53
75051;BME280;63628;47.656;11.310;2022-12-11T22:00:44;93981.59;;;0.68;80.42
75051;BME280;63628;47.656;11.310;2022-12-11T22:03:10;93975.41;;;0.69;80.09
75051;BME280;63628;47.656;11.310;2022-12-11T22:05:37;93975.59;;;0.68;80.43
75051;BME280;63628;47.656;11.310;2022-12-11T22:08:04;93977.59;;;0.66;80.70
75051;BME280;63628;47.656;11.310;2022-12-11T22:10:31;93982.00;;;0.65;80.37
75051;BME280;63628;47.656;11.310;2022-12-11T22:12:59;93986.38;;;0.64;80.35
75051;BME280;63628;47.656;11.310;2022-12-11T22:15:25;93977.94;;;0.62;80.19
75051;BME280;63628;47.656;11.310;2022-12-11T22:17:52;93978.75;;;0.63;80.78
75051;BME280;63628;47.656;11.310;2022-12-11T22:20:19;93978.94;;;0.61;80.26
75051;BME280;63628;47.656;11.310;2022-12-11T22:22:45;93974.53;;;0.62;79.83
75051;BME280;63628;47.656;11.310;2022-12-11T22:25:12;93984.34;;;0.60;80.68
75051;BME280;63628;47.656;11.310;2022-12-11T22:27:39;93973.94;;;0.60;80.24
75051;BME280;63628;47.656;11.310;2022-12-11T22:30:09;93979.31;;;0.58;80.03
75051;BME280;63628;47.656;11.310;2022-12-11T22:32:36;93977.09;;;0.55;79.93
75051;BME280;63628;47.656;11.310;2022-12-11T22:35:03;93975.31;;;0.56;80.13
75051;BME280;63628;47.656;11.310;2022-12-11T22:37:30;93973.69;;;0.55;80.44
75051;BME280;63628;47.656;11.310;2022-12-11T22:39:56;93982.50;;;0.54;79.82
75051;BME280;63628;47.656;11.310;2022-12-11T22:42:23;93974.88;;;0.52;79.98
75051;BME280;63628;47.656;11.310;2022-12-11T22:44:50;93978.66;;;0.50;80.29
75051;BME280;63628;47.656;11.310;2022-12-11T22:47:18;93978.66;;;0.50;80.26
75051;BME280;63628;47.656;11.310;2022-12-11T22:49:44;93980.47;;;0.49;79.85
75051;BME280;63628;47.656;11.310;2022-12-11T22:52:11;93980.66;;;0.48;79.91
75051;BME280;63628;47.656;11.310;2022-12-11T22:54:38;93978.25;;;0.46;80.31
75051;BME280;63628;47.656;11.310;2022-12-11T22:57:05;93982.66;;;0.46;80.37
75051;BME280;63628;47.656;11.310;2022-12-11T22:59:31;93982.47;;;0.47;80.30
75051;BME280;63628;47.656;11.310;2022-12-11T23:01:58;93976.88;;;-0.27;72.21
75051;BME280;63628;47.656;11.310;2022-12-11T23:04:26;93976.00;;;0.37;80.56
75051;BME280;63628;47.656;11.310;2022-12-11T23:06:53;93974.00;;;0.39;80.15
75051;BME280;63628;47.656;11.310;2022-12-11T23:09:19;93974.00;;;0.39;80.00
75051;BME280;63628;47.656;11.310;2022-12-11T23:11:46;93970.59;;;0.38;80.55
75051;BME280;63628;47.656;11.310;2022-12-11T23:14:15;93973.19;;;0.38;79.86
75051;BME280;63628;47.656;11.310;2022-12-11T23:16:42;93972.41;;;0.38;79.92
75051;BME280;63628;47.656;11.310;2022-12-11T23:19:10;93962.97;;;0.37;79.72
75051;BME280;63628;47.656;11.310;2022-12-11T23:21:38;93967.56;;;0.35;80.22
75051;BME280;63628;47.656;11.310;2022-12-11T23:24:05;93966.75;;;0.34;79.69
75051;BME280;63628;47.656;11.310;2022-12-11T23:26:33;93966.16;;;0.32;79.67
75051;BME280;63628;47.656;11.310;2022-12-11T23:29:00;93963.56;;;0.32;79.75
75051;BME280;63628;47.656;11.310;2022-12-11T23:31:27;93963.75;;;0.30;79.71
75051;BME280;63628;47.656;11.310;2022-12-11T23:33:55;93959.72;;;0.28;79.80
75051;BME280;63628;47.656;11.310;2022-12-11T23:36:23;93969.50;;;0.26;79.69
75051;BME280;63628;47.656;11.310;2022-12-11T23:38:52;93969.09;;;0.22;79.83
75051;BME280;63628;47.656;11.310;2022-12-11T23:41:20;93965.69;;;0.22;79.47
75051;BME280;63628;47.656;11.310;2022-12-11T23:43:47;93974.47;;;0.21;79.71
75051;BME280;63628;47.656;11.310;2022-12-11T23:46:15;93973.88;;;0.19;80.01
75051;BME280;63628;47.656;11.310;2022-12-11T23:48:43;93968.28;;;0.22;79.78
75051;BME280;63628;47.656;11.310;2022-12-11T23:54:52;93980.25;;;0.16;79.52
75051;BME280;63628;47.656;11.310;2022-12-11T23:57:20;93984.63;;;-0.55;80.15
75051;BME280;63628;47.656;11.310;2022-12-11T23:59:47;93978.34;;;0.04;80.24
